createdAt,value
2023-07-22T00:01:00.899Z,94396.59
2023-07-22T00:03:27.718Z,94396.97
2023-07-22T00:06:06.571Z,94402.59
2023-07-22T00:08:34.152Z,94399.56
2023-07-22T00:11:01.333Z,94399.84
2023-07-22T00:13:28.193Z,94400.13
2023-07-22T00:15:55.223Z,94391.53
2023-07-22T00:18:21.999Z,94395.31
2023-07-22T00:20:48.717Z,94402.31
2023-07-22T00:23:17.020Z,94397.63
2023-07-22T00:25:44.189Z,94402.28
2023-07-22T00:28:10.893Z,94395.19
2023-07-22T00:30:38.064Z,94398.13
2023-07-22T00:33:04.938Z,94398.56
2023-07-22T00:35:33.199Z,94390.00
2023-07-22T00:38:01.713Z,94392.16
2023-07-22T00:40:29.099Z,94392.88
2023-07-22T00:42:55.863Z,94394.47
2023-07-22T00:45:22.600Z,94384.72
2023-07-22T00:47:49.884Z,94393.25
2023-07-22T00:50:16.792Z,94392.69
2023-07-22T00:52:43.525Z,94396.47
2023-07-22T00:55:10.279Z,94399.38
2023-07-22T00:57:37.626Z,94398.56
2023-07-22T01:00:06.270Z,94395.50
2023-07-22T01:02:33.424Z,94388.16
2023-07-22T01:05:00.854Z,94393.88
2023-07-22T01:07:27.597Z,94391.50
2023-07-22T01:09:57.266Z,94394.25
2023-07-22T01:12:23.982Z,94394.25
2023-07-22T01:14:50.999Z,94393.09
2023-07-22T01:17:17.737Z,94391.84
2023-07-22T01:19:44.463Z,94390.19
2023-07-22T01:22:11.634Z,94388.38
2023-07-22T01:24:39.323Z,94381.00
2023-07-22T01:27:07.427Z,94386.91
2023-07-22T01:29:34.165Z,94381.66
2023-07-22T01:32:00.885Z,94388.06
2023-07-22T01:34:28.060Z,94380.22
2023-07-22T01:36:54.788Z,94379.16
2023-07-22T01:39:21.530Z,94375.00
2023-07-22T01:41:48.284Z,94376.56
2023-07-22T01:44:15.500Z,94375.53
2023-07-22T01:46:42.382Z,94378.97
2023-07-22T01:49:11.933Z,94370.03
2023-07-22T01:51:39.221Z,94368.97
2023-07-22T01:54:06.272Z,94369.69
2023-07-22T01:56:32.999Z,94367.41
2023-07-22T01:58:59.811Z,94372.81
2023-07-22T02:01:26.930Z,94360.00
2023-07-22T02:03:54.263Z,94358.72
2023-07-22T02:06:21.541Z,94359.56
2023-07-22T02:08:48.273Z,94360.09
2023-07-22T02:11:15.404Z,94358.53
2023-07-22T02:13:42.556Z,94359.88
2023-07-22T02:16:09.785Z,94360.88
2023-07-22T02:18:36.580Z,94359.78
2023-07-22T02:21:03.449Z,94358.50
2023-07-22T02:23:30.167Z,94359.47
2023-07-22T02:25:56.999Z,94361.31
2023-07-22T02:28:23.781Z,94365.47
2023-07-22T02:30:51.303Z,94361.06
2023-07-22T02:33:18.067Z,94365.75
2023-07-22T02:35:44.948Z,94359.38
2023-07-22T02:38:12.913Z,94372.69
2023-07-22T02:40:39.642Z,94379.19
2023-07-22T02:43:06.440Z,94374.72
2023-07-22T02:45:33.546Z,94368.72
2023-07-22T02:48:00.307Z,94372.28
2023-07-22T02:50:28.487Z,94379.56
2023-07-22T02:52:55.228Z,94384.16
2023-07-22T02:55:22.638Z,94376.69
2023-07-22T02:57:49.657Z,94370.06
2023-07-22T03:00:17.595Z,94371.81
2023-07-22T03:02:44.347Z,94373.84
2023-07-22T03:05:11.267Z,94381.31
2023-07-22T03:07:38.623Z,94377.78
2023-07-22T03:10:09.102Z,94374.44
2023-07-22T03:12:37.023Z,94368.47
2023-07-22T03:15:04.026Z,94373.06
2023-07-22T03:17:31.084Z,94372.50
2023-07-22T03:19:57.831Z,94369.66
2023-07-22T03:22:24.648Z,94375.41
2023-07-22T03:24:51.788Z,94371.31
2023-07-22T03:27:18.585Z,94386.38
2023-07-22T03:29:45.465Z,94376.91
2023-07-22T03:32:13.564Z,94386.38
2023-07-22T03:34:40.357Z,94395.66
2023-07-22T03:37:08.265Z,94397.88
2023-07-22T03:39:35.050Z,94394.81
2023-07-22T03:42:01.787Z,94397.25
2023-07-22T03:44:30.371Z,94404.50
2023-07-22T03:46:58.341Z,94399.81
2023-07-22T03:49:25.601Z,94411.16
2023-07-22T03:51:52.310Z,94413.72
2023-07-22T03:54:19.039Z,94410.47
2023-07-22T03:56:45.943Z,94418.44
2023-07-22T03:59:13.140Z,94426.38
2023-07-22T04:01:40.081Z,94419.44
2023-07-22T04:04:06.926Z,94419.75
2023-07-22T04:06:33.801Z,94425.38
2023-07-22T04:09:00.755Z,94420.75
2023-07-22T04:11:27.880Z,94429.16
2023-07-22T04:14:14.726Z,94422.84
2023-07-22T04:17:40.430Z,94434.16
2023-07-22T04:20:07.674Z,94426.97
2023-07-22T04:22:35.134Z,94434.41
2023-07-22T04:25:02.183Z,94438.00
2023-07-22T04:27:29.275Z,94426.97
2023-07-22T04:29:55.986Z,94438.28
2023-07-22T04:32:23.083Z,94438.06
2023-07-22T04:34:49.899Z,94438.31
2023-07-22T04:37:16.707Z,94446.06
2023-07-22T04:39:43.482Z,94444.28
2023-07-22T04:42:10.534Z,94434.97
2023-07-22T04:44:37.449Z,94443.50
2023-07-22T04:47:04.463Z,94452.47
2023-07-22T04:49:31.355Z,94449.59
2023-07-22T04:51:58.171Z,94448.09
2023-07-22T04:54:26.318Z,94452.19
2023-07-22T04:56:53.038Z,94454.75
2023-07-22T04:59:19.855Z,94461.13
2023-07-22T05:01:46.997Z,94460.00
2023-07-22T05:04:13.786Z,94462.09
2023-07-22T05:06:40.952Z,94459.75
2023-07-22T05:09:08.046Z,94465.94
2023-07-22T05:11:34.789Z,94469.28
2023-07-22T05:14:01.583Z,94466.66
2023-07-22T05:16:28.600Z,94464.94
2023-07-22T05:18:55.532Z,94462.19
2023-07-22T05:21:22.633Z,94460.19
2023-07-22T05:23:49.816Z,94460.66
2023-07-22T05:26:16.520Z,94468.31
2023-07-22T05:28:43.478Z,94467.66
2023-07-22T05:31:10.409Z,94468.50
2023-07-22T05:33:43.331Z,94463.03
2023-07-22T05:36:10.568Z,94458.13
2023-07-22T05:38:37.320Z,94462.53
2023-07-22T05:41:04.529Z,94472.25
2023-07-22T05:43:31.376Z,94466.38
2023-07-22T05:45:58.290Z,94458.56
2023-07-22T05:48:25.229Z,94464.50
2023-07-22T05:50:52.884Z,94465.75
2023-07-22T05:53:19.681Z,94465.72
2023-07-22T05:55:46.810Z,94460.28
2023-07-22T05:58:17.651Z,94469.16
2023-07-22T06:00:44.389Z,94468.06
2023-07-22T06:03:11.260Z,94468.75
2023-07-22T06:05:38.044Z,94477.34
2023-07-22T06:08:05.126Z,94469.16
2023-07-22T06:10:32.319Z,94476.47
2023-07-22T06:12:59.114Z,94478.69
2023-07-22T06:15:25.880Z,94474.19
2023-07-22T06:17:52.699Z,94479.59
2023-07-22T06:20:19.937Z,94477.81
2023-07-22T06:22:46.675Z,94478.38
2023-07-22T06:25:13.500Z,94469.88
2023-07-22T06:27:40.724Z,94481.66
2023-07-22T06:30:07.961Z,94477.38
2023-07-22T06:32:35.453Z,94473.75
2023-07-22T06:35:02.534Z,94491.75
2023-07-22T06:37:31.334Z,94474.94
2023-07-22T06:39:58.081Z,94470.22
2023-07-22T06:42:25.251Z,94485.16
2023-07-22T06:44:52.064Z,94486.22
2023-07-22T06:47:18.832Z,94488.94
2023-07-22T06:49:47.494Z,94492.22
2023-07-22T06:52:16.626Z,94495.03
2023-07-22T06:54:43.383Z,94502.53
2023-07-22T06:57:10.208Z,94493.88
2023-07-22T06:59:37.542Z,94498.84
2023-07-22T07:02:05.167Z,94498.63
2023-07-22T07:04:31.903Z,94498.31
2023-07-22T07:06:59.041Z,94504.97
2023-07-22T07:09:25.814Z,94499.25
2023-07-22T07:11:52.680Z,94502.25
2023-07-22T07:14:19.449Z,94498.72
2023-07-22T07:19:12.809Z,94498.38
2023-07-22T07:21:39.637Z,94505.59
2023-07-22T07:24:06.620Z,94497.44
2023-07-22T07:26:33.819Z,94499.56
2023-07-22T07:29:00.666Z,94503.13
2023-07-22T07:31:27.445Z,94507.28
2023-07-22T07:33:54.221Z,94507.47
2023-07-22T07:36:21.013Z,94504.84
2023-07-22T07:38:47.807Z,94503.44
2023-07-22T07:41:14.670Z,94505.53
2023-07-22T07:43:42.028Z,94512.25
2023-07-22T07:46:24.810Z,94510.09
2023-07-22T07:48:53.469Z,94506.91
2023-07-22T07:51:21.163Z,94514.72
2023-07-22T07:53:47.991Z,94512.59
2023-07-22T07:56:14.938Z,94520.31
2023-07-22T07:58:41.841Z,94515.28
2023-07-22T08:01:08.572Z,94515.41
2023-07-22T08:03:36.006Z,94520.31
2023-07-22T08:06:03.547Z,94521.25
2023-07-22T08:08:30.438Z,94519.38
2023-07-22T08:11:04.129Z,94523.91
2023-07-22T08:13:30.846Z,94515.06
2023-07-22T08:15:58.440Z,94518.34
2023-07-22T08:18:25.421Z,94519.78
2023-07-22T08:20:53.531Z,94519.81
2023-07-22T08:23:20.991Z,94513.75
2023-07-22T08:25:47.982Z,94518.72
2023-07-22T08:28:15.024Z,94521.03
2023-07-22T08:30:41.870Z,94515.47
2023-07-22T08:33:13.026Z,94517.69
2023-07-22T08:35:40.858Z,94515.84
2023-07-22T08:38:08.502Z,94510.41
2023-07-22T08:40:38.964Z,94519.06
2023-07-22T08:43:06.827Z,94521.16
2023-07-22T08:45:34.366Z,94517.81
2023-07-22T08:48:01.248Z,94521.91
2023-07-22T08:50:31.447Z,94523.50
2023-07-22T08:52:58.183Z,94520.97
2023-07-22T08:55:25.533Z,94514.59
2023-07-22T08:57:52.342Z,94512.28
2023-07-22T09:00:19.690Z,94514.25
2023-07-22T09:02:46.450Z,94513.94
2023-07-22T09:05:13.473Z,94513.34
2023-07-22T09:07:40.295Z,94520.59
2023-07-22T09:10:09.422Z,94509.53
2023-07-22T09:12:36.289Z,94511.97
2023-07-22T09:15:03.036Z,94510.97
2023-07-22T09:17:30.289Z,94514.28
2023-07-22T09:19:57.154Z,94508.38
2023-07-22T09:22:35.203Z,94514.31
2023-07-22T09:25:15.220Z,94508.50
2023-07-22T09:27:42.738Z,94507.06
2023-07-22T09:30:28.862Z,94509.66
2023-07-22T09:33:05.190Z,94510.38
2023-07-22T09:35:46.031Z,94505.63
2023-07-22T09:38:13.197Z,94502.56
2023-07-22T09:40:43.247Z,94508.03
2023-07-22T09:43:23.356Z,94506.66
2023-07-22T09:45:50.341Z,94501.78
2023-07-22T09:48:17.312Z,94493.72
2023-07-22T09:50:44.585Z,94505.03
2023-07-22T09:53:12.065Z,94503.25
2023-07-22T09:55:38.773Z,94508.13
2023-07-22T09:58:05.814Z,94505.72
2023-07-22T10:00:55.251Z,94501.22
2023-07-22T10:03:22.428Z,94510.53
2023-07-22T10:05:49.370Z,94504.03
2023-07-22T10:08:16.565Z,94502.88
2023-07-22T10:10:43.874Z,94495.66
2023-07-22T10:13:10.676Z,94495.66
2023-07-22T10:15:45.761Z,94496.03
2023-07-22T10:18:12.880Z,94498.13
2023-07-22T10:20:40.334Z,94494.28
2023-07-22T10:23:07.830Z,94498.09
2023-07-22T10:25:34.769Z,94495.59
2023-07-22T10:28:01.764Z,94496.78
2023-07-22T10:30:28.540Z,94495.63
2023-07-22T10:32:55.386Z,94498.53
2023-07-22T10:35:32.144Z,94495.22
2023-07-22T10:38:14.967Z,94483.63
2023-07-22T10:40:49.079Z,94487.38
2023-07-22T10:43:19.785Z,94488.50
2023-07-22T10:45:54.620Z,94492.50
2023-07-22T10:48:21.451Z,94498.84
2023-07-22T10:50:49.594Z,94490.56
2023-07-22T10:53:25.325Z,94490.72
2023-07-22T10:56:21.755Z,94478.41
2023-07-22T10:58:49.322Z,94485.72
2023-07-22T11:01:32.280Z,94481.66
2023-07-22T11:04:22.001Z,94476.88
2023-07-22T11:06:54.938Z,94485.25
2023-07-22T11:09:28.178Z,94472.09
2023-07-22T11:11:56.245Z,94483.75
2023-07-22T11:14:23.094Z,94479.19
2023-07-22T11:16:49.868Z,94465.56
2023-07-22T11:19:17.653Z,94470.16
2023-07-22T11:21:45.064Z,94471.19
2023-07-22T11:24:11.844Z,94465.88
2023-07-22T11:26:40.244Z,94461.34
2023-07-22T11:29:08.368Z,94456.66
2023-07-22T11:31:41.563Z,94451.47
2023-07-22T11:34:08.316Z,94460.34
2023-07-22T11:36:35.113Z,94450.47
2023-07-22T11:39:06.188Z,94448.28
2023-07-22T11:41:33.669Z,94446.81
2023-07-22T11:44:04.018Z,94441.44
2023-07-22T11:46:30.819Z,94437.03
2023-07-22T11:48:57.899Z,94440.63
2023-07-22T11:51:26.317Z,94442.81
2023-07-22T11:53:54.661Z,94439.09
2023-07-22T11:56:29.242Z,94443.94
2023-07-22T11:58:56.979Z,94434.22
2023-07-22T12:01:24.087Z,94435.94
2023-07-22T12:03:56.269Z,94431.38
2023-07-22T12:06:23.169Z,94435.19
2023-07-22T12:08:52.313Z,94435.50
2023-07-22T12:11:23.675Z,94432.72
2023-07-22T12:14:07.368Z,94428.22
2023-07-22T12:16:35.168Z,94422.97
2023-07-22T12:19:02.194Z,94423.69
2023-07-22T12:21:29.192Z,94418.78
2023-07-22T12:23:56.430Z,94421.28
2023-07-22T12:26:23.607Z,94426.34
2023-07-22T12:28:51.081Z,94434.22
2023-07-22T12:31:18.225Z,94433.09
2023-07-22T12:33:44.956Z,94430.56
2023-07-22T12:36:14.454Z,94420.00
2023-07-22T12:38:42.478Z,94413.97
2023-07-22T12:41:09.200Z,94427.63
2023-07-22T12:43:36.200Z,94420.16
2023-07-22T12:46:02.950Z,94415.56
2023-07-22T12:48:29.736Z,94407.97
2023-07-22T12:50:56.542Z,94415.81
2023-07-22T12:53:23.439Z,94409.31
2023-07-22T12:55:50.282Z,94404.00
2023-07-22T12:58:18.419Z,94398.56
2023-07-22T13:00:45.173Z,94400.22
2023-07-22T13:03:14.809Z,94400.34
2023-07-22T13:05:41.620Z,94399.03
2023-07-22T13:08:08.462Z,94402.69
2023-07-22T13:10:37.638Z,94396.28
2023-07-22T13:13:04.431Z,94409.75
2023-07-22T13:15:31.226Z,94408.72
2023-07-22T13:17:58.356Z,94404.06
2023-07-22T13:20:25.534Z,94406.47
2023-07-22T13:22:52.541Z,94398.53
2023-07-22T13:25:19.413Z,94391.91
2023-07-22T13:27:46.147Z,94389.13
2023-07-22T13:30:14.286Z,94395.97
2023-07-22T13:32:41.121Z,94396.78
2023-07-22T13:35:10.775Z,94389.63
2023-07-22T13:37:37.546Z,94392.22
2023-07-22T13:40:07.970Z,94398.34
2023-07-22T13:46:21.989Z,94388.94
2023-07-22T13:48:50.424Z,94388.81
2023-07-22T13:51:17.137Z,94392.09
2023-07-22T13:53:45.400Z,94388.88
2023-07-22T13:56:12.161Z,94378.28
2023-07-22T13:58:39.301Z,94384.47
2023-07-22T14:01:06.305Z,94379.28
2023-07-22T14:03:33.136Z,94388.38
2023-07-22T14:06:00.002Z,94373.25
2023-07-22T14:08:26.754Z,94383.41
2023-07-22T14:10:53.851Z,94381.41
2023-07-22T14:13:22.774Z,94389.69
2023-07-22T14:15:49.567Z,94380.72
2023-07-22T14:18:17.155Z,94383.66
2023-07-22T14:20:46.859Z,94377.53
2023-07-22T14:23:13.664Z,94386.25
2023-07-22T14:25:40.746Z,94385.06
2023-07-22T14:28:07.794Z,94374.47
2023-07-22T14:30:35.011Z,94379.16
2023-07-22T14:33:02.109Z,94369.50
2023-07-22T14:35:29.300Z,94370.25
2023-07-22T14:37:57.276Z,94377.53
2023-07-22T14:40:26.566Z,94363.00
2023-07-22T14:42:53.648Z,94365.28
2023-07-22T14:45:21.508Z,94365.47
2023-07-22T14:47:48.712Z,94364.13
2023-07-22T14:50:15.521Z,94362.31
2023-07-22T14:52:42.552Z,94366.66
2023-07-22T14:55:10.309Z,94356.25
2023-07-22T14:57:37.233Z,94356.34
2023-07-22T15:00:04.572Z,94354.19
2023-07-22T15:02:31.354Z,94369.81
2023-07-22T15:04:58.102Z,94350.06
2023-07-22T15:08:03.994Z,94357.31
2023-07-22T15:10:31.074Z,94355.03
2023-07-22T15:12:58.476Z,94361.69
2023-07-22T15:15:26.566Z,94348.41
2023-07-22T15:17:53.305Z,94350.81
2023-07-22T15:20:20.375Z,94343.84
2023-07-22T15:22:47.347Z,94352.84
2023-07-22T15:25:14.675Z,94349.69
2023-07-22T15:27:43.262Z,94342.88
2023-07-22T15:30:10.504Z,94340.34
2023-07-22T15:32:37.491Z,94344.16
2023-07-22T15:35:05.965Z,94342.97
2023-07-22T15:41:19.642Z,94343.56
2023-07-22T15:43:46.469Z,94343.84
2023-07-22T15:46:13.231Z,94346.72
2023-07-22T15:48:40.007Z,94333.03
2023-07-22T15:51:06.718Z,94329.56
2023-07-22T15:53:34.808Z,94343.56
2023-07-22T15:56:15.477Z,94340.50
2023-07-22T15:58:42.603Z,94333.50
2023-07-22T16:01:09.706Z,94342.31
2023-07-22T16:03:36.524Z,94336.16
2023-07-22T16:06:03.796Z,94340.34
2023-07-22T16:08:31.803Z,94342.19
2023-07-22T16:10:58.535Z,94327.03
2023-07-22T16:13:26.434Z,94330.47
2023-07-22T16:15:56.044Z,94334.88
2023-07-22T16:18:23.226Z,94323.78
2023-07-22T16:20:50.002Z,94331.84
2023-07-22T16:23:16.846Z,94327.56
2023-07-22T16:25:43.930Z,94329.53
2023-07-22T16:28:10.643Z,94327.56
2023-07-22T16:30:41.064Z,94322.31
2023-07-22T16:33:07.899Z,94327.44
2023-07-22T16:35:35.707Z,94321.66
2023-07-22T16:38:03.988Z,94322.63
2023-07-22T16:40:30.749Z,94317.84
2023-07-22T16:42:57.476Z,94316.16
2023-07-22T16:45:24.205Z,94321.47
2023-07-22T16:47:50.946Z,94316.03
2023-07-22T16:50:18.351Z,94313.88
2023-07-22T16:52:46.385Z,94304.78
2023-07-22T16:55:18.142Z,94307.75
2023-07-22T16:57:45.685Z,94306.06
2023-07-22T17:00:15.545Z,94308.38
2023-07-22T17:02:48.490Z,94309.03
2023-07-22T17:05:15.306Z,94304.19
2023-07-22T17:07:43.455Z,94312.69
2023-07-22T17:10:10.384Z,94309.53
2023-07-22T17:12:37.109Z,94301.34
2023-07-22T17:15:08.126Z,94298.53
2023-07-22T17:17:35.064Z,94305.66
2023-07-22T17:20:01.894Z,94302.88
2023-07-22T17:22:30.241Z,94298.50
2023-07-22T17:24:56.997Z,94297.16
2023-07-22T17:27:24.673Z,94299.09
2023-07-22T17:29:51.793Z,94305.91
2023-07-22T17:32:19.206Z,94299.28
2023-07-22T17:34:48.876Z,94301.50
2023-07-22T17:37:16.093Z,94299.59
2023-07-22T17:39:42.853Z,94290.78
2023-07-22T17:42:09.592Z,94292.50
2023-07-22T17:44:37.362Z,94293.03
2023-07-22T17:47:05.108Z,94289.22
2023-07-22T17:49:32.532Z,94288.28
2023-07-22T17:51:59.411Z,94291.78
2023-07-22T17:54:29.053Z,94289.56
2023-07-22T17:56:56.251Z,94294.13
2023-07-22T17:59:23.117Z,94292.53
2023-07-22T18:01:50.440Z,94289.72
2023-07-22T18:04:17.503Z,94287.00
2023-07-22T18:06:55.687Z,94292.59
2023-07-22T18:09:22.420Z,94288.81
2023-07-22T18:11:49.146Z,94288.03
2023-07-22T18:14:15.890Z,94287.69
2023-07-22T18:16:43.097Z,94283.75
2023-07-22T18:19:10.225Z,94287.44
2023-07-22T18:21:37.987Z,94289.56
2023-07-22T18:24:04.924Z,94294.38
2023-07-22T18:26:32.683Z,94291.66
2023-07-22T18:28:59.409Z,94291.31
2023-07-22T18:31:27.679Z,94294.69
2023-07-22T18:33:56.094Z,94298.22
2023-07-22T18:36:22.894Z,94284.38
2023-07-22T18:38:50.002Z,94291.44
2023-07-22T18:41:17.040Z,94286.81
2023-07-22T18:43:44.290Z,94299.31
2023-07-22T18:46:17.669Z,94297.72
2023-07-22T18:48:47.493Z,94295.69
2023-07-22T18:51:15.473Z,94298.50
2023-07-22T18:53:42.577Z,94297.63
2023-07-22T18:56:10.817Z,94304.75
2023-07-22T18:58:38.935Z,94304.44
2023-07-22T19:01:08.706Z,94307.47
2023-07-22T19:03:36.642Z,94309.00
2023-07-22T19:06:04.232Z,94318.19
2023-07-22T19:08:30.973Z,94314.91
2023-07-22T19:10:57.709Z,94318.06
2023-07-22T19:13:25.036Z,94325.94
2023-07-22T19:15:52.501Z,94328.47
2023-07-22T19:18:19.349Z,94321.78
2023-07-22T19:20:46.226Z,94330.25
2023-07-22T19:23:12.971Z,94327.06
2023-07-22T19:25:40.215Z,94334.69
2023-07-22T19:28:10.016Z,94326.31
2023-07-22T19:30:40.175Z,94339.16
2023-07-22T19:33:08.287Z,94331.63
2023-07-22T19:35:35.089Z,94337.06
2023-07-22T19:38:02.306Z,94345.44
2023-07-22T19:40:29.874Z,94342.78
2023-07-22T19:42:56.602Z,94350.56
2023-07-22T19:45:26.000Z,94352.78
2023-07-22T19:47:54.120Z,94357.03
2023-07-22T19:50:21.671Z,94362.84
2023-07-22T19:52:49.805Z,94363.91
2023-07-22T19:55:16.642Z,94369.56
2023-07-22T19:57:43.388Z,94372.63
2023-07-22T20:00:11.091Z,94374.66
2023-07-22T20:02:38.398Z,94374.97
2023-07-22T20:05:05.867Z,94378.50
2023-07-22T20:07:32.652Z,94386.16
2023-07-22T20:09:59.442Z,94379.38
2023-07-22T20:12:26.471Z,94387.69
2023-07-22T20:14:53.301Z,94391.13
2023-07-22T20:17:20.392Z,94383.78
2023-07-22T20:19:49.905Z,94393.56
2023-07-22T20:22:17.153Z,94393.59
2023-07-22T20:24:44.171Z,94394.56
2023-07-22T20:27:11.423Z,94392.31
2023-07-22T20:29:40.819Z,94393.31
2023-07-22T20:32:23.033Z,94410.41
2023-07-22T20:34:57.955Z,94395.34
2023-07-22T20:37:24.781Z,94400.09
2023-07-22T20:39:52.490Z,94395.66
2023-07-22T20:42:22.185Z,94395.38
2023-07-22T20:44:48.930Z,94397.88
2023-07-22T20:47:15.685Z,94387.78
2023-07-22T20:49:42.760Z,94393.38
2023-07-22T20:52:09.554Z,94388.84
2023-07-22T20:54:36.690Z,94392.94
2023-07-22T20:57:04.058Z,94396.94
2023-07-22T20:59:30.793Z,94400.22
2023-07-22T21:01:57.522Z,94402.81
2023-07-22T21:04:24.633Z,94403.63
2023-07-22T21:06:59.325Z,94393.78
2023-07-22T21:09:26.128Z,94406.47
2023-07-22T21:11:52.974Z,94400.84
2023-07-22T21:14:19.815Z,94400.81
2023-07-22T21:16:46.545Z,94395.38
2023-07-22T21:19:13.271Z,94399.06
2023-07-22T21:21:41.001Z,94393.06
2023-07-22T21:24:07.814Z,94393.75
2023-07-22T21:26:36.160Z,94402.91
2023-07-22T21:29:03.262Z,94402.41
2023-07-22T21:31:30.351Z,94397.38
2023-07-22T21:34:12.406Z,94389.59
2023-07-22T21:37:03.260Z,94397.28
2023-07-22T21:39:30.478Z,94397.66
2023-07-22T21:41:57.729Z,94407.50
2023-07-22T21:44:24.571Z,94401.94
2023-07-22T21:46:51.722Z,94400.38
2023-07-22T21:49:18.884Z,94396.91
2023-07-22T21:51:45.856Z,94405.13
2023-07-22T21:54:12.652Z,94398.63
2023-07-22T21:56:39.371Z,94402.19
2023-07-22T21:59:06.181Z,94405.47
2023-07-22T22:01:35.475Z,94404.19
2023-07-22T22:04:02.514Z,94402.53
2023-07-22T22:06:36.322Z,94398.91
2023-07-22T22:09:03.500Z,94408.13
2023-07-22T22:11:30.874Z,94406.78
2023-07-22T22:13:57.896Z,94406.22
2023-07-22T22:16:24.989Z,94404.81
2023-07-22T22:18:51.732Z,94407.84
2023-07-22T22:21:18.938Z,94396.59
2023-07-22T22:23:45.706Z,94393.50
2023-07-22T22:26:12.450Z,94405.81
2023-07-22T22:28:39.988Z,94399.88
2023-07-22T22:31:07.214Z,94403.66
2023-07-22T22:33:36.888Z,94397.72
2023-07-22T22:36:04.113Z,94399.84
2023-07-22T22:38:30.964Z,94401.84
2023-07-22T22:40:57.747Z,94401.63
2023-07-22T22:43:24.644Z,94402.19
2023-07-22T22:45:51.442Z,94398.84
2023-07-22T22:48:18.374Z,94399.38
2023-07-22T22:50:45.157Z,94400.69
2023-07-22T22:53:11.952Z,94400.50
2023-07-22T22:55:38.851Z,94396.03
2023-07-22T22:58:05.667Z,94393.81
2023-07-22T23:00:32.534Z,94399.56
2023-07-22T23:02:59.484Z,94402.38
2023-07-22T23:05:28.414Z,94397.47
2023-07-22T23:07:55.268Z,94391.94
2023-07-22T23:10:22.033Z,94387.34
2023-07-22T23:12:49.245Z,94380.59
2023-07-22T23:15:16.947Z,94378.09
2023-07-22T23:17:44.289Z,94378.34
2023-07-22T23:20:12.855Z,94374.44
2023-07-22T23:22:52.861Z,94379.28
2023-07-22T23:25:19.945Z,94382.75
2023-07-22T23:27:46.866Z,94378.38
2023-07-22T23:30:13.698Z,94373.22
2023-07-22T23:32:41.127Z,94383.13
2023-07-22T23:35:08.286Z,94382.16
2023-07-22T23:37:35.757Z,94381.94
2023-07-22T23:40:03.130Z,94371.69
2023-07-22T23:42:30.067Z,94366.50
2023-07-22T23:44:58.174Z,94364.50
2023-07-22T23:47:25.370Z,94371.19
2023-07-22T23:49:52.110Z,94372.25
2023-07-22T23:52:18.834Z,94370.72
2023-07-22T23:54:45.937Z,94372.50
2023-07-22T23:57:12.769Z,94365.66
2023-07-22T23:59:39.881Z,94367.06
